sensor_id;sensor_type;location;lat;lon;timestamp;temperature;humidity
12845;DHT22;68700;48.534;9.196;2023-04-15T00:02:25;3.40;1.00
12845;DHT22;68700;48.534;9.196;2023-04-15T00:05:47;3.30;1.00
12845;DHT22;68700;48.534;9.196;2023-04-15T00:09:09;3.30;1.00
12845;DHT22;68700;48.534;9.196;2023-04-15T00:12:33;3.20;1.00
12845;DHT22;68700;48.534;9.196;2023-04-15T00:15:55;3.20;1.00
12845;DHT22;68700;48.534;9.196;2023-04-15T00:19:17;3.10;1.00
12845;DHT22;68700;48.534;9.196;2023-04-15T00:22:40;3.00;1.00
12845;DHT22;68700;48.534;9.196;2023-04-15T00:26:02;3.00;1.00
12845;DHT22;68700;48.534;9.196;2023-04-15T00:29:25;3.00;1.00
12845;DHT22;68700;48.534;9.196;2023-04-15T00:32:47;3.00;1.00
12845;DHT22;68700;48.534;9.196;2023-04-15T00:36:09;3.00;1.00
12845;DHT22;68700;48.534;9.196;2023-04-15T00:39:31;2.90;1.00
12845;DHT22;68700;48.534;9.196;2023-04-15T00:42:53;2.90;1.00
12845;DHT22;68700;48.534;9.196;2023-04-15T00:46:18;2.90;1.00
12845;DHT22;68700;48.534;9.196;2023-04-15T00:49:41;2.80;1.00
12845;DHT22;68700;48.534;9.196;2023-04-15T00:53:03;2.70;1.00
12845;DHT22;68700;48.534;9.196;2023-04-15T00:56:26;2.70;1.00
12845;DHT22;68700;48.534;9.196;2023-04-15T00:59:50;2.70;1.00
12845;DHT22;68700;48.534;9.196;2023-04-15T01:03:14;2.60;1.00
12845;DHT22;68700;48.534;9.196;2023-04-15T01:06:36;2.60;1.00
12845;DHT22;68700;48.534;9.196;2023-04-15T01:09:58;2.60;1.00
12845;DHT22;68700;48.534;9.196;2023-04-15T01:13:21;2.60;1.00
12845;DHT22;68700;48.534;9.196;2023-04-15T01:16:44;2.60;1.00
12845;DHT22;68700;48.534;9.196;2023-04-15T01:20:08;2.60;1.00
12845;DHT22;68700;48.534;9.196;2023-04-15T01:23:32;2.60;1.00
12845;DHT22;68700;48.534;9.196;2023-04-15T01:26:55;2.60;1.00
12845;DHT22;68700;48.534;9.196;2023-04-15T01:30:18;2.50;1.00
12845;DHT22;68700;48.534;9.196;2023-04-15T01:33:40;2.50;1.00
12845;DHT22;68700;48.534;9.196;2023-04-15T01:37:02;2.50;1.00
12845;DHT22;68700;48.534;9.196;2023-04-15T01:40:25;2.60;1.00
12845;DHT22;68700;48.534;9.196;2023-04-15T01:43:48;2.60;1.00
12845;DHT22;68700;48.534;9.196;2023-04-15T01:47:10;2.60;1.00
12845;DHT22;68700;48.534;9.196;2023-04-15T01:50:32;2.50;1.00
12845;DHT22;68700;48.534;9.196;2023-04-15T01:53:53;2.50;1.00
12845;DHT22;68700;48.534;9.196;2023-04-15T01:57:16;2.40;1.00
12845;DHT22;68700;48.534;9.196;2023-04-15T02:00:39;2.40;1.00
12845;DHT22;68700;48.534;9.196;2023-04-15T02:04:02;2.50;1.00
12845;DHT22;68700;48.534;9.196;2023-04-15T02:07:24;2.50;1.00
12845;DHT22;68700;48.534;9.196;2023-04-15T02:10:46;2.40;1.00
12845;DHT22;68700;48.534;9.196;2023-04-15T02:14:08;2.40;1.00
12845;DHT22;68700;48.534;9.196;2023-04-15T02:17:33;2.40;1.00
12845;DHT22;68700;48.534;9.196;2023-04-15T02:20:55;2.40;1.00
12845;DHT22;68700;48.534;9.196;2023-04-15T02:24:18;2.40;1.00
12845;DHT22;68700;48.534;9.196;2023-04-15T02:27:39;2.40;1.00
12845;DHT22;68700;48.534;9.196;2023-04-15T02:31:04;2.30;1.00
12845;DHT22;68700;48.534;9.196;2023-04-15T02:34:27;2.30;1.00
12845;DHT22;68700;48.534;9.196;2023-04-15T02:37:50;2.20;1.00
12845;DHT22;68700;48.534;9.196;2023-04-15T02:41:12;2.20;1.00
12845;DHT22;68700;48.534;9.196;2023-04-15T02:44:34;2.10;1.00
12845;DHT22;68700;48.534;9.196;2023-04-15T02:47:56;2.10;1.00
12845;DHT22;68700;48.534;9.196;2023-04-15T02:51:20;2.10;1.00
12845;DHT22;68700;48.534;9.196;2023-04-15T02:54:42;2.00;1.00
12845;DHT22;68700;48.534;9.196;2023-04-15T02:58:05;2.00;1.00
12845;DHT22;68700;48.534;9.196;2023-04-15T03:01:27;1.90;1.00
12845;DHT22;68700;48.534;9.196;2023-04-15T03:04:49;2.00;1.00
12845;DHT22;68700;48.534;9.196;2023-04-15T03:08:12;1.90;1.00
12845;DHT22;68700;48.534;9.196;2023-04-15T03:11:35;1.90;1.00
12845;DHT22;68700;48.534;9.196;2023-04-15T03:15:00;1.90;1.00
12845;DHT22;68700;48.534;9.196;2023-04-15T03:18:22;1.90;1.00
12845;DHT22;68700;48.534;9.196;2023-04-15T03:21:44;1.90;1.00
12845;DHT22;68700;48.534;9.196;2023-04-15T03:25:08;1.90;1.00
12845;DHT22;68700;48.534;9.196;2023-04-15T03:28:30;1.90;1.00
12845;DHT22;68700;48.534;9.196;2023-04-15T03:31:52;1.80;1.00
12845;DHT22;68700;48.534;9.196;2023-04-15T03:35:14;1.70;1.00
12845;DHT22;68700;48.534;9.196;2023-04-15T03:38:36;1.70;1.00
12845;DHT22;68700;48.534;9.196;2023-04-15T03:41:59;1.70;1.00
12845;DHT22;68700;48.534;9.196;2023-04-15T03:45:23;1.70;1.00
12845;DHT22;68700;48.534;9.196;2023-04-15T03:48:45;1.70;1.00
12845;DHT22;68700;48.534;9.196;2023-04-15T03:52:07;1.70;1.00
12845;DHT22;68700;48.534;9.196;2023-04-15T03:55:29;1.70;1.00
12845;DHT22;68700;48.534;9.196;2023-04-15T03:58:52;1.60;1.00
12845;DHT22;68700;48.534;9.196;2023-04-15T04:02:14;1.60;1.00
12845;DHT22;68700;48.534;9.196;2023-04-15T04:05:36;1.50;1.00
12845;DHT22;68700;48.534;9.196;2023-04-15T04:08:58;1.50;1.00
12845;DHT22;68700;48.534;9.196;2023-04-15T04:12:20;1.50;1.00
12845;DHT22;68700;48.534;9.196;2023-04-15T04:15:56;1.50;1.00
12845;DHT22;68700;48.534;9.196;2023-04-15T04:19:18;1.50;1.00
12845;DHT22;68700;48.534;9.196;2023-04-15T04:22:40;1.50;1.00
12845;DHT22;68700;48.534;9.196;2023-04-15T04:26:02;1.50;1.00
12845;DHT22;68700;48.534;9.196;2023-04-15T04:29:24;1.30;1.00
12845;DHT22;68700;48.534;9.196;2023-04-15T04:32:48;1.30;1.00
12845;DHT22;68700;48.534;9.196;2023-04-15T04:36:10;1.20;1.00
12845;DHT22;68700;48.534;9.196;2023-04-15T04:39:32;1.30;1.00
12845;DHT22;68700;48.534;9.196;2023-04-15T04:42:54;1.30;1.00
12845;DHT22;68700;48.534;9.196;2023-04-15T04:46:16;1.40;1.00
12845;DHT22;68700;48.534;9.196;2023-04-15T04:49:39;1.40;1.00
12845;DHT22;68700;48.534;9.196;2023-04-15T04:53:01;1.40;1.00
12845;DHT22;68700;48.534;9.196;2023-04-15T04:56:23;1.40;1.00
12845;DHT22;68700;48.534;9.196;2023-04-15T04:59:45;1.40;1.00
12845;DHT22;68700;48.534;9.196;2023-04-15T05:03:07;1.40;1.00
12845;DHT22;68700;48.534;9.196;2023-04-15T05:06:30;1.50;1.00
12845;DHT22;68700;48.534;9.196;2023-04-15T05:09:52;1.40;1.00
12845;DHT22;68700;48.534;9.196;2023-04-15T05:13:14;1.40;1.00
12845;DHT22;68700;48.534;9.196;2023-04-15T05:16:35;1.40;1.00
12845;DHT22;68700;48.534;9.196;2023-04-15T05:19:57;1.50;1.00
12845;DHT22;68700;48.534;9.196;2023-04-15T05:23:20;1.50;1.00
12845;DHT22;68700;48.534;9.196;2023-04-15T05:26:42;1.60;1.00
12845;DHT22;68700;48.534;9.196;2023-04-15T05:30:05;1.70;1.00
12845;DHT22;68700;48.534;9.196;2023-04-15T05:33:28;1.70;1.00
12845;DHT22;68700;48.534;9.196;2023-04-15T05:36:50;1.80;1.00
12845;DHT22;68700;48.534;9.196;2023-04-15T05:40:16;1.90;1.00
12845;DHT22;68700;48.534;9.196;2023-04-15T05:43:38;2.00;1.00
12845;DHT22;68700;48.534;9.196;2023-04-15T05:47:00;2.10;1.00
12845;DHT22;68700;48.534;9.196;2023-04-15T05:50:23;2.10;1.00
12845;DHT22;68700;48.534;9.196;2023-04-15T05:53:45;2.30;1.00
12845;DHT22;68700;48.534;9.196;2023-04-15T05:57:08;2.40;1.00
12845;DHT22;68700;48.534;9.196;2023-04-15T06:00:29;2.50;1.00
12845;DHT22;68700;48.534;9.196;2023-04-15T06:03:51;2.60;1.00
12845;DHT22;68700;48.534;9.196;2023-04-15T06:07:13;2.80;1.00
12845;DHT22;68700;48.534;9.196;2023-04-15T06:10:35;3.10;1.00
12845;DHT22;68700;48.534;9.196;2023-04-15T06:13:59;3.30;1.00
12845;DHT22;68700;48.534;9.196;2023-04-15T06:17:20;3.60;1.00
12845;DHT22;68700;48.534;9.196;2023-04-15T06:20:42;3.70;1.00
12845;DHT22;68700;48.534;9.196;2023-04-15T06:24:05;4.10;1.00
12845;DHT22;68700;48.534;9.196;2023-04-15T06:27:27;4.30;1.00
12845;DHT22;68700;48.534;9.196;2023-04-15T06:30:50;4.50;1.00
12845;DHT22;68700;48.534;9.196;2023-04-15T06:34:12;4.70;1.00
12845;DHT22;68700;48.534;9.196;2023-04-15T06:37:33;5.00;1.00
12845;DHT22;68700;48.534;9.196;2023-04-15T06:40:55;5.20;1.00
12845;DHT22;68700;48.534;9.196;2023-04-15T06:44:17;5.30;1.00
12845;DHT22;68700;48.534;9.196;2023-04-15T06:47:41;5.80;1.00
12845;DHT22;68700;48.534;9.196;2023-04-15T06:51:03;6.10;1.00
12845;DHT22;68700;48.534;9.196;2023-04-15T06:54:25;5.90;1.00
12845;DHT22;68700;48.534;9.196;2023-04-15T06:57:46;6.00;1.00
12845;DHT22;68700;48.534;9.196;2023-04-15T07:01:08;6.40;1.00
12845;DHT22;68700;48.534;9.196;2023-04-15T07:04:32;6.30;1.00
12845;DHT22;68700;48.534;9.196;2023-04-15T07:07:54;6.50;1.00
12845;DHT22;68700;48.534;9.196;2023-04-15T07:11:16;6.60;1.00
12845;DHT22;68700;48.534;9.196;2023-04-15T07:14:38;6.50;1.00
12845;DHT22;68700;48.534;9.196;2023-04-15T07:17:59;6.50;1.00
12845;DHT22;68700;48.534;9.196;2023-04-15T07:21:23;6.40;1.00
12845;DHT22;68700;48.534;9.196;2023-04-15T07:24:45;7.10;1.00
12845;DHT22;68700;48.534;9.196;2023-04-15T07:28:07;7.40;1.00
12845;DHT22;68700;48.534;9.196;2023-04-15T07:31:29;7.40;1.00
12845;DHT22;68700;48.534;9.196;2023-04-15T07:34:51;7.10;1.00
12845;DHT22;68700;48.534;9.196;2023-04-15T07:38:14;7.60;1.00
12845;DHT22;68700;48.534;9.196;2023-04-15T07:41:38;7.20;1.00
12845;DHT22;68700;48.534;9.196;2023-04-15T07:45:00;8.10;1.00
12845;DHT22;68700;48.534;9.196;2023-04-15T07:48:22;8.70;1.00
12845;DHT22;68700;48.534;9.196;2023-04-15T07:51:44;9.20;1.00
12845;DHT22;68700;48.534;9.196;2023-04-15T07:55:08;9.30;99.90
12845;DHT22;68700;48.534;9.196;2023-04-15T07:58:30;10.10;99.90
12845;DHT22;68700;48.534;9.196;2023-04-15T08:01:52;10.80;99.90
12845;DHT22;68700;48.534;9.196;2023-04-15T08:05:13;10.80;99.90
12845;DHT22;68700;48.534;9.196;2023-04-15T08:08:35;11.80;99.90
12845;DHT22;68700;48.534;9.196;2023-04-15T08:11:58;13.00;99.90
12845;DHT22;68700;48.534;9.196;2023-04-15T08:15:20;13.90;99.90
12845;DHT22;68700;48.534;9.196;2023-04-15T08:18:43;13.40;99.90
12845;DHT22;68700;48.534;9.196;2023-04-15T08:22:05;11.90;99.90
12845;DHT22;68700;48.534;9.196;2023-04-15T08:25:30;12.00;99.90
12845;DHT22;68700;48.534;9.196;2023-04-15T08:29:03;12.30;99.90
12845;DHT22;68700;48.534;9.196;2023-04-15T08:32:25;13.40;99.90
12845;DHT22;68700;48.534;9.196;2023-04-15T08:35:47;13.80;99.90
12845;DHT22;68700;48.534;9.196;2023-04-15T08:39:09;13.70;99.90
12845;DHT22;68700;48.534;9.196;2023-04-15T08:42:36;13.60;99.90
12845;DHT22;68700;48.534;9.196;2023-04-15T08:46:03;13.20;99.90
12845;DHT22;68700;48.534;9.196;2023-04-15T08:49:26;14.60;99.90
12845;DHT22;68700;48.534;9.196;2023-04-15T08:52:48;15.70;99.90
12845;DHT22;68700;48.534;9.196;2023-04-15T08:56:10;15.40;99.90
12845;DHT22;68700;48.534;9.196;2023-04-15T08:59:33;15.80;99.90
12845;DHT22;68700;48.534;9.196;2023-04-15T09:02:58;14.90;99.90
12845;DHT22;68700;48.534;9.196;2023-04-15T09:06:21;14.50;99.90
12845;DHT22;68700;48.534;9.196;2023-04-15T09:09:43;15.70;99.90
12845;DHT22;68700;48.534;9.196;2023-04-15T09:13:05;15.70;99.90
12845;DHT22;68700;48.534;9.196;2023-04-15T09:16:27;16.30;99.90
12845;DHT22;68700;48.534;9.196;2023-04-15T09:20:07;16.00;99.90
12845;DHT22;68700;48.534;9.196;2023-04-15T09:23:29;16.50;99.90
12845;DHT22;68700;48.534;9.196;2023-04-15T09:26:52;16.10;99.90
12845;DHT22;68700;48.534;9.196;2023-04-15T09:30:14;15.70;99.90
12845;DHT22;68700;48.534;9.196;2023-04-15T09:33:54;15.70;99.90
12845;DHT22;68700;48.534;9.196;2023-04-15T09:37:18;17.10;99.90
12845;DHT22;68700;48.534;9.196;2023-04-15T09:40:55;15.20;99.90
12845;DHT22;68700;48.534;9.196;2023-04-15T09:44:24;15.90;99.90
12845;DHT22;68700;48.534;9.196;2023-04-15T09:47:46;17.30;99.90
12845;DHT22;68700;48.534;9.196;2023-04-15T09:51:08;17.00;99.90
12845;DHT22;68700;48.534;9.196;2023-04-15T09:54:35;17.10;99.90
12845;DHT22;68700;48.534;9.196;2023-04-15T09:57:57;17.50;99.90
12845;DHT22;68700;48.534;9.196;2023-04-15T10:01:19;17.80;99.90
12845;DHT22;68700;48.534;9.196;2023-04-15T10:04:41;18.20;99.90
12845;DHT22;68700;48.534;9.196;2023-04-15T10:08:03;17.40;99.90
12845;DHT22;68700;48.534;9.196;2023-04-15T10:11:28;16.30;99.90
12845;DHT22;68700;48.534;9.196;2023-04-15T10:14:52;16.70;99.90
12845;DHT22;68700;48.534;9.196;2023-04-15T10:18:19;16.30;99.90
12845;DHT22;68700;48.534;9.196;2023-04-15T10:21:41;18.10;99.90
12845;DHT22;68700;48.534;9.196;2023-04-15T10:25:05;17.40;99.90
12845;DHT22;68700;48.534;9.196;2023-04-15T10:28:28;16.50;99.90
12845;DHT22;68700;48.534;9.196;2023-04-15T10:31:51;17.10;99.90
12845;DHT22;68700;48.534;9.196;2023-04-15T10:35:15;16.90;99.90
12845;DHT22;68700;48.534;9.196;2023-04-15T10:38:38;16.10;99.90
12845;DHT22;68700;48.534;9.196;2023-04-15T10:42:08;15.40;99.90
12845;DHT22;68700;48.534;9.196;2023-04-15T10:45:33;15.60;99.90
12845;DHT22;68700;48.534;9.196;2023-04-15T10:48:56;14.70;99.90
12845;DHT22;68700;48.534;9.196;2023-04-15T10:52:22;13.80;99.90
12845;DHT22;68700;48.534;9.196;2023-04-15T10:55:45;14.00;99.90
12845;DHT22;68700;48.534;9.196;2023-04-15T10:59:07;14.20;99.90
12845;DHT22;68700;48.534;9.196;2023-04-15T11:02:43;14.90;99.90
12845;DHT22;68700;48.534;9.196;2023-04-15T11:06:06;15.70;99.90
12845;DHT22;68700;48.534;9.196;2023-04-15T11:09:31;16.20;99.90
12845;DHT22;68700;48.534;9.196;2023-04-15T11:12:56;17.90;99.90
12845;DHT22;68700;48.534;9.196;2023-04-15T11:16:19;18.70;99.90
12845;DHT22;68700;48.534;9.196;2023-04-15T11:19:42;19.30;99.90
12845;DHT22;68700;48.534;9.196;2023-04-15T11:23:04;18.90;99.90
12845;DHT22;68700;48.534;9.196;2023-04-15T11:26:27;18.40;99.90
12845;DHT22;68700;48.534;9.196;2023-04-15T11:29:49;17.40;99.90
12845;DHT22;68700;48.534;9.196;2023-04-15T11:33:11;16.10;99.90
12845;DHT22;68700;48.534;9.196;2023-04-15T11:36:35;16.00;99.90
12845;DHT22;68700;48.534;9.196;2023-04-15T11:39:58;16.30;99.90
12845;DHT22;68700;48.534;9.196;2023-04-15T11:43:21;17.20;99.90
12845;DHT22;68700;48.534;9.196;2023-04-15T11:46:43;18.40;99.90
12845;DHT22;68700;48.534;9.196;2023-04-15T11:50:16;20.20;99.90
12845;DHT22;68700;48.534;9.196;2023-04-15T11:53:43;18.70;99.90
12845;DHT22;68700;48.534;9.196;2023-04-15T11:57:06;18.50;99.90
12845;DHT22;68700;48.534;9.196;2023-04-15T12:00:28;18.00;99.90
12845;DHT22;68700;48.534;9.196;2023-04-15T12:03:50;16.90;99.90
12845;DHT22;68700;48.534;9.196;2023-04-15T12:07:12;16.50;99.90
12845;DHT22;68700;48.534;9.196;2023-04-15T12:10:35;16.00;99.90
12845;DHT22;68700;48.534;9.196;2023-04-15T12:13:59;15.40;99.90
12845;DHT22;68700;48.534;9.196;2023-04-15T12:17:24;15.20;99.90
12845;DHT22;68700;48.534;9.196;2023-04-15T12:20:47;15.30;99.90
12845;DHT22;68700;48.534;9.196;2023-04-15T12:24:10;14.80;99.90
12845;DHT22;68700;48.534;9.196;2023-04-15T12:27:34;15.40;99.90
12845;DHT22;68700;48.534;9.196;2023-04-15T12:30:56;16.10;99.90
12845;DHT22;68700;48.534;9.196;2023-04-15T12:34:26;15.50;99.90
12845;DHT22;68700;48.534;9.196;2023-04-15T12:37:48;16.20;99.90
12845;DHT22;68700;48.534;9.196;2023-04-15T12:41:12;16.60;99.90
12845;DHT22;68700;48.534;9.196;2023-04-15T12:44:36;16.20;99.90
12845;DHT22;68700;48.534;9.196;2023-04-15T12:47:58;16.40;99.90
12845;DHT22;68700;48.534;9.196;2023-04-15T12:51:20;18.00;99.90
12845;DHT22;68700;48.534;9.196;2023-04-15T12:54:42;18.20;99.90
12845;DHT22;68700;48.534;9.196;2023-04-15T12:58:04;17.50;99.90
12845;DHT22;68700;48.534;9.196;2023-04-15T13:01:27;17.50;99.90
12845;DHT22;68700;48.534;9.196;2023-04-15T13:04:49;16.60;99.90
12845;DHT22;68700;48.534;9.196;2023-04-15T13:08:11;15.90;99.90
12845;DHT22;68700;48.534;9.196;2023-04-15T13:11:33;15.90;99.90
12845;DHT22;68700;48.534;9.196;2023-04-15T13:14:56;16.30;99.90
12845;DHT22;68700;48.534;9.196;2023-04-15T13:18:19;16.00;99.90
12845;DHT22;68700;48.534;9.196;2023-04-15T13:21:41;14.20;99.90
12845;DHT22;68700;48.534;9.196;2023-04-15T13:25:03;14.10;99.90
12845;DHT22;68700;48.534;9.196;2023-04-15T13:28:25;13.70;99.90
12845;DHT22;68700;48.534;9.196;2023-04-15T13:31:47;13.50;99.90
12845;DHT22;68700;48.534;9.196;2023-04-15T13:35:10;13.70;99.90
12845;DHT22;68700;48.534;9.196;2023-04-15T13:38:32;14.60;99.90
12845;DHT22;68700;48.534;9.196;2023-04-15T13:41:54;15.40;99.90
12845;DHT22;68700;48.534;9.196;2023-04-15T13:45:16;15.80;99.90
12845;DHT22;68700;48.534;9.196;2023-04-15T13:48:38;14.90;99.90
12845;DHT22;68700;48.534;9.196;2023-04-15T13:52:01;15.10;99.90
12845;DHT22;68700;48.534;9.196;2023-04-15T13:55:23;15.80;99.90
12845;DHT22;68700;48.534;9.196;2023-04-15T13:58:44;16.40;99.90
12845;DHT22;68700;48.534;9.196;2023-04-15T14:02:06;15.70;99.90
12845;DHT22;68700;48.534;9.196;2023-04-15T14:05:28;14.90;99.90
12845;DHT22;68700;48.534;9.196;2023-04-15T14:08:52;15.00;99.90
12845;DHT22;68700;48.534;9.196;2023-04-15T14:12:14;14.60;99.90
12845;DHT22;68700;48.534;9.196;2023-04-15T14:15:36;14.00;99.90
12845;DHT22;68700;48.534;9.196;2023-04-15T14:18:57;13.40;99.90
12845;DHT22;68700;48.534;9.196;2023-04-15T14:22:19;12.90;99.90
12845;DHT22;68700;48.534;9.196;2023-04-15T14:25:42;12.30;99.90
12845;DHT22;68700;48.534;9.196;2023-04-15T14:29:04;12.30;99.90
12845;DHT22;68700;48.534;9.196;2023-04-15T14:32:26;12.50;99.90
12845;DHT22;68700;48.534;9.196;2023-04-15T14:35:48;12.80;99.90
12845;DHT22;68700;48.534;9.196;2023-04-15T14:39:13;13.20;99.90
12845;DHT22;68700;48.534;9.196;2023-04-15T14:42:37;13.10;99.90
12845;DHT22;68700;48.534;9.196;2023-04-15T14:45:59;12.60;99.90
12845;DHT22;68700;48.534;9.196;2023-04-15T14:49:21;12.70;99.90
12845;DHT22;68700;48.534;9.196;2023-04-15T14:52:43;12.60;99.90
12845;DHT22;68700;48.534;9.196;2023-04-15T14:56:05;12.50;99.90
12845;DHT22;68700;48.534;9.196;2023-04-15T14:59:28;12.40;99.90
12845;DHT22;68700;48.534;9.196;2023-04-15T15:02:50;12.50;99.90
12845;DHT22;68700;48.534;9.196;2023-04-15T15:06:12;12.40;99.90
12845;DHT22;68700;48.534;9.196;2023-04-15T15:09:34;12.50;99.90
12845;DHT22;68700;48.534;9.196;2023-04-15T15:12:56;12.50;99.90
12845;DHT22;68700;48.534;9.196;2023-04-15T15:16:19;12.50;99.90
12845;DHT22;68700;48.534;9.196;2023-04-15T15:19:41;12.30;99.90
12845;DHT22;68700;48.534;9.196;2023-04-15T15:23:03;12.10;99.90
12845;DHT22;68700;48.534;9.196;2023-04-15T15:26:25;12.10;99.90
12845;DHT22;68700;48.534;9.196;2023-04-15T15:29:47;12.10;99.90
12845;DHT22;68700;48.534;9.196;2023-04-15T15:33:10;12.20;99.90
12845;DHT22;68700;48.534;9.196;2023-04-15T15:36:32;12.00;99.90
12845;DHT22;68700;48.534;9.196;2023-04-15T15:39:54;11.80;99.90
12845;DHT22;68700;48.534;9.196;2023-04-15T15:43:16;11.80;99.90
12845;DHT22;68700;48.534;9.196;2023-04-15T15:46:38;11.50;99.90
12845;DHT22;68700;48.534;9.196;2023-04-15T15:50:02;11.40;99.90
12845;DHT22;68700;48.534;9.196;2023-04-15T15:53:24;11.20;99.90
12845;DHT22;68700;48.534;9.196;2023-04-15T15:56:45;11.00;99.90
12845;DHT22;68700;48.534;9.196;2023-04-15T16:00:08;11.00;99.90
12845;DHT22;68700;48.534;9.196;2023-04-15T16:03:30;10.90;99.90
12845;DHT22;68700;48.534;9.196;2023-04-15T16:06:53;11.00;99.90
12845;DHT22;68700;48.534;9.196;2023-04-15T16:10:15;11.00;99.90
12845;DHT22;68700;48.534;9.196;2023-04-15T16:13:37;11.00;99.90
12845;DHT22;68700;48.534;9.196;2023-04-15T16:16:59;11.00;99.90
12845;DHT22;68700;48.534;9.196;2023-04-15T16:20:21;11.10;99.90
12845;DHT22;68700;48.534;9.196;2023-04-15T16:23:44;11.10;99.90
12845;DHT22;68700;48.534;9.196;2023-04-15T16:27:06;10.80;99.90
12845;DHT22;68700;48.534;9.196;2023-04-15T16:30:30;10.80;99.90
12845;DHT22;68700;48.534;9.196;2023-04-15T16:33:52;10.80;99.90
12845;DHT22;68700;48.534;9.196;2023-04-15T16:37:13;10.70;99.90
12845;DHT22;68700;48.534;9.196;2023-04-15T16:40:37;10.70;99.90
12845;DHT22;68700;48.534;9.196;2023-04-15T16:43:59;10.70;99.90
12845;DHT22;68700;48.534;9.196;2023-04-15T16:47:22;10.60;99.90
12845;DHT22;68700;48.534;9.196;2023-04-15T16:50:44;10.70;99.90
12845;DHT22;68700;48.534;9.196;2023-04-15T16:54:07;10.50;99.90
12845;DHT22;68700;48.534;9.196;2023-04-15T16:57:30;10.60;99.90
12845;DHT22;68700;48.534;9.196;2023-04-15T17:00:52;10.60;99.90
12845;DHT22;68700;48.534;9.196;2023-04-15T17:04:14;10.40;99.90
12845;DHT22;68700;48.534;9.196;2023-04-15T17:07:36;10.30;99.90
12845;DHT22;68700;48.534;9.196;2023-04-15T17:10:58;10.20;99.90
12845;DHT22;68700;48.534;9.196;2023-04-15T17:14:21;10.00;99.90
12845;DHT22;68700;48.534;9.196;2023-04-15T17:17:43;10.00;99.90
12845;DHT22;68700;48.534;9.196;2023-04-15T17:21:05;9.90;99.90
12845;DHT22;68700;48.534;9.196;2023-04-15T17:24:27;9.80;1.00
12845;DHT22;68700;48.534;9.196;2023-04-15T17:27:49;9.80;1.00
12845;DHT22;68700;48.534;9.196;2023-04-15T17:31:12;9.90;1.00
12845;DHT22;68700;48.534;9.196;2023-04-15T17:34:34;9.90;1.00
12845;DHT22;68700;48.534;9.196;2023-04-15T17:37:56;9.80;1.00
12845;DHT22;68700;48.534;9.196;2023-04-15T17:41:18;9.70;1.00
12845;DHT22;68700;48.534;9.196;2023-04-15T17:44:39;9.40;1.00
12845;DHT22;68700;48.534;9.196;2023-04-15T17:48:03;9.30;1.00
12845;DHT22;68700;48.534;9.196;2023-04-15T17:51:25;9.20;1.00
12845;DHT22;68700;48.534;9.196;2023-04-15T17:54:47;9.00;1.00
12845;DHT22;68700;48.534;9.196;2023-04-15T17:58:09;9.00;1.00
12845;DHT22;68700;48.534;9.196;2023-04-15T18:01:31;9.00;1.00
12845;DHT22;68700;48.534;9.196;2023-04-15T18:05:02;9.00;1.00
12845;DHT22;68700;48.534;9.196;2023-04-15T18:08:23;9.00;1.00
12845;DHT22;68700;48.534;9.196;2023-04-15T18:11:45;9.00;1.00
12845;DHT22;68700;48.534;9.196;2023-04-15T18:15:09;8.90;1.00
12845;DHT22;68700;48.534;9.196;2023-04-15T18:18:32;8.90;1.00
12845;DHT22;68700;48.534;9.196;2023-04-15T18:21:55;8.90;1.00
12845;DHT22;68700;48.534;9.196;2023-04-15T18:25:19;8.90;1.00
12845;DHT22;68700;48.534;9.196;2023-04-15T18:28:41;8.90;1.00
12845;DHT22;68700;48.534;9.196;2023-04-15T18:32:03;8.80;1.00
12845;DHT22;68700;48.534;9.196;2023-04-15T18:35:25;8.80;1.00
12845;DHT22;68700;48.534;9.196;2023-04-15T18:38:50;8.80;1.00
12845;DHT22;68700;48.534;9.196;2023-04-15T18:42:12;8.70;1.00
12845;DHT22;68700;48.534;9.196;2023-04-15T18:45:34;8.50;1.00
12845;DHT22;68700;48.534;9.196;2023-04-15T18:48:56;8.40;1.00
12845;DHT22;68700;48.534;9.196;2023-04-15T18:52:18;8.40;1.00
12845;DHT22;68700;48.534;9.196;2023-04-15T18:55:41;8.40;1.00
12845;DHT22;68700;48.534;9.196;2023-04-15T18:59:03;8.30;1.00
12845;DHT22;68700;48.534;9.196;2023-04-15T19:02:26;8.30;1.00
12845;DHT22;68700;48.534;9.196;2023-04-15T19:05:47;8.20;1.00
12845;DHT22;68700;48.534;9.196;2023-04-15T19:09:10;8.20;1.00
12845;DHT22;68700;48.534;9.196;2023-04-15T19:12:33;8.10;1.00
12845;DHT22;68700;48.534;9.196;2023-04-15T19:15:56;8.10;1.00
12845;DHT22;68700;48.534;9.196;2023-04-15T19:22:48;8.10;1.00
12845;DHT22;68700;48.534;9.196;2023-04-15T19:26:10;8.10;1.00
12845;DHT22;68700;48.534;9.196;2023-04-15T19:29:34;8.10;1.00
12845;DHT22;68700;48.534;9.196;2023-04-15T19:32:56;8.10;1.00
12845;DHT22;68700;48.534;9.196;2023-04-15T19:36:17;8.10;1.00
12845;DHT22;68700;48.534;9.196;2023-04-15T19:39:40;8.10;1.00
12845;DHT22;68700;48.534;9.196;2023-04-15T19:43:01;8.10;1.00
12845;DHT22;68700;48.534;9.196;2023-04-15T19:46:25;8.10;1.00
12845;DHT22;68700;48.534;9.196;2023-04-15T19:49:47;8.10;1.00
12845;DHT22;68700;48.534;9.196;2023-04-15T19:53:09;8.00;1.00
12845;DHT22;68700;48.534;9.196;2023-04-15T19:56:31;8.00;1.00
12845;DHT22;68700;48.534;9.196;2023-04-15T19:59:53;8.00;1.00
12845;DHT22;68700;48.534;9.196;2023-04-15T20:03:16;8.00;1.00
12845;DHT22;68700;48.534;9.196;2023-04-15T20:06:38;8.00;1.00
12845;DHT22;68700;48.534;9.196;2023-04-15T20:10:00;7.90;1.00
12845;DHT22;68700;48.534;9.196;2023-04-15T20:13:21;7.90;1.00
12845;DHT22;68700;48.534;9.196;2023-04-15T20:16:43;7.90;1.00
12845;DHT22;68700;48.534;9.196;2023-04-15T20:20:07;7.80;1.00
12845;DHT22;68700;48.534;9.196;2023-04-15T20:23:29;7.90;1.00
12845;DHT22;68700;48.534;9.196;2023-04-15T20:26:51;7.80;1.00
12845;DHT22;68700;48.534;9.196;2023-04-15T20:30:13;7.80;1.00
12845;DHT22;68700;48.534;9.196;2023-04-15T20:33:35;7.80;1.00
12845;DHT22;68700;48.534;9.196;2023-04-15T20:36:58;7.80;1.00
12845;DHT22;68700;48.534;9.196;2023-04-15T20:40:20;7.90;1.00
12845;DHT22;68700;48.534;9.196;2023-04-15T20:43:42;7.80;1.00
12845;DHT22;68700;48.534;9.196;2023-04-15T20:47:04;7.90;1.00
12845;DHT22;68700;48.534;9.196;2023-04-15T20:50:26;7.80;1.00
12845;DHT22;68700;48.534;9.196;2023-04-15T20:53:49;7.70;1.00
12845;DHT22;68700;48.534;9.196;2023-04-15T20:57:11;7.80;1.00
12845;DHT22;68700;48.534;9.196;2023-04-15T21:00:33;7.60;1.00
12845;DHT22;68700;48.534;9.196;2023-04-15T21:03:55;7.70;1.00
12845;DHT22;68700;48.534;9.196;2023-04-15T21:07:17;7.70;1.00
12845;DHT22;68700;48.534;9.196;2023-04-15T21:10:40;7.60;1.00
12845;DHT22;68700;48.534;9.196;2023-04-15T21:14:04;7.60;1.00
12845;DHT22;68700;48.534;9.196;2023-04-15T21:17:26;7.70;1.00
12845;DHT22;68700;48.534;9.196;2023-04-15T21:20:55;7.70;1.00
12845;DHT22;68700;48.534;9.196;2023-04-15T21:24:17;7.60;1.00
12845;DHT22;68700;48.534;9.196;2023-04-15T21:27:40;7.60;1.00
12845;DHT22;68700;48.534;9.196;2023-04-15T21:31:02;7.50;1.00
12845;DHT22;68700;48.534;9.196;2023-04-15T21:34:23;7.60;1.00
12845;DHT22;68700;48.534;9.196;2023-04-15T21:37:45;7.60;1.00
12845;DHT22;68700;48.534;9.196;2023-04-15T21:41:07;7.60;1.00
12845;DHT22;68700;48.534;9.196;2023-04-15T21:44:31;7.60;1.00
12845;DHT22;68700;48.534;9.196;2023-04-15T21:47:53;7.50;1.00